Terminal Aerodrome Forecast
Issued by NWS

Home | Current Version | Previous Version | Text Only | Print | Product List | Glossary On
Versions: 1 2 3 4 5 6 7 8 9 10 11 12 13 14 15 16 17 18 19 20 21 22 23 24 25 26 27 28 29 30
000
FTUS44 KOUN 280830 AAA
TAFLAW
TAF AMD
KLAW 280830Z 2809/2906 28012G20KT P6SM -TSRA FEW015 OVC060CB
      TEMPO 2809/2810 1SM +TSRA BKN025CB
     FM281030 11010KT P6SM FEW015 BKN100
     FM281400 19015KT P6SM BKN030
     FM282100 15009KT P6SM OVC050=

USA.gov is the U.S. government's official web portal to all federal, state and local government web resources and services.